createdAt,value
2018-12-18T00:00:03.194Z,100736.16
2018-12-18T00:02:31.736Z,100742.23
2018-12-18T00:05:04.375Z,100745.30
2018-12-18T00:07:32.879Z,100739.63
2018-12-18T00:10:01.434Z,100733.95
2018-12-18T00:12:29.956Z,100743.03
2018-12-18T00:15:10.751Z,100735.23
2018-12-18T00:17:39.261Z,100731.77
2018-12-18T00:20:07.796Z,100736.13
2018-12-18T00:22:36.246Z,100732.20
2018-12-18T00:25:05.937Z,100730.05
2018-12-18T00:27:34.548Z,100732.69
2018-12-18T00:30:03.057Z,100729.59
2018-12-18T00:32:31.571Z,100728.70
2018-12-18T00:35:00.022Z,100733.48
2018-12-18T00:37:28.499Z,100728.26
2018-12-18T00:39:56.977Z,100720.84
2018-12-18T00:42:25.419Z,100726.50
2018-12-18T00:44:53.873Z,100723.93
2018-12-18T00:47:22.323Z,100723.03
2018-12-18T00:49:50.857Z,100725.68
2018-12-18T00:52:19.385Z,100721.73
2018-12-18T00:54:47.895Z,100725.61
2018-12-18T00:57:16.494Z,100723.89
2018-12-18T00:59:45.029Z,100725.58
2018-12-18T01:02:13.618Z,100730.77
2018-12-18T01:04:42.113Z,100732.92
2018-12-18T01:07:10.742Z,100728.19
2018-12-18T01:09:39.197Z,100726.06
2018-12-18T01:12:07.654Z,100723.03
2018-12-18T01:14:36.109Z,100721.32
2018-12-18T01:17:04.585Z,100721.36
2018-12-18T01:19:33.064Z,100718.33
2018-12-18T01:22:01.566Z,100720.53
2018-12-18T01:24:30.086Z,100722.66
2018-12-18T01:26:58.604Z,100718.74
2018-12-18T01:29:27.225Z,100716.98
2018-12-18T01:31:55.738Z,100722.63
2018-12-18T01:34:24.218Z,100718.60
2018-12-18T01:36:52.745Z,100720.28
2018-12-18T01:39:21.226Z,100727.16
2018-12-18T01:41:49.785Z,100714.52
2018-12-18T01:44:18.282Z,100721.48
2018-12-18T01:46:46.748Z,100526.56
2018-12-18T01:49:15.283Z,100721.34
2018-12-18T01:51:43.806Z,100719.40
2018-12-18T01:54:12.258Z,100726.22
2018-12-18T01:56:40.761Z,100716.52
2018-12-18T01:59:09.237Z,100723.37
2018-12-18T02:01:37.751Z,100733.27
2018-12-18T02:04:06.401Z,100725.81
2018-12-18T02:06:34.915Z,100719.34
2018-12-18T02:09:04.042Z,100722.39
2018-12-18T02:11:32.539Z,100724.55
2018-12-18T02:14:01.029Z,100731.07
2018-12-18T02:16:29.559Z,100732.30
2018-12-18T02:18:57.986Z,100734.81
2018-12-18T02:21:26.530Z,100731.71
2018-12-18T02:23:55.076Z,100734.16
2018-12-18T02:26:23.618Z,100731.86
2018-12-18T02:28:52.103Z,100723.02
2018-12-18T02:31:20.654Z,100724.67
2018-12-18T02:33:49.105Z,100720.22
2018-12-18T02:36:17.588Z,100717.03
2018-12-18T02:38:46.057Z,100718.24
2018-12-18T02:41:14.565Z,100719.86
2018-12-18T02:43:43.155Z,100717.56
2018-12-18T02:46:11.642Z,100717.47
2018-12-18T02:48:40.155Z,100705.11
2018-12-18T02:51:08.611Z,100712.42
2018-12-18T02:53:37.070Z,100709.35
2018-12-18T02:56:05.529Z,100714.47
2018-12-18T02:58:34.029Z,100717.53
2018-12-18T03:01:02.559Z,100716.58
2018-12-18T03:03:30.999Z,100707.41
2018-12-18T03:05:59.517Z,100713.82
2018-12-18T03:08:28.011Z,100704.31
2018-12-18T03:10:56.482Z,100705.20
2018-12-18T03:13:25.047Z,100706.55
2018-12-18T03:15:53.551Z,100729.15
2018-12-18T03:18:22.043Z,100722.83
2018-12-18T03:20:51.102Z,100727.69
2018-12-18T03:23:19.623Z,100733.91
2018-12-18T03:25:48.133Z,100726.53
2018-12-18T03:28:16.750Z,100719.66
2018-12-18T03:30:45.271Z,100728.52
2018-12-18T03:33:13.820Z,100717.71
2018-12-18T03:35:43.584Z,100709.08
2018-12-18T03:38:12.202Z,100711.59
2018-12-18T03:40:40.672Z,100708.00
2018-12-18T03:43:09.213Z,100707.04
2018-12-18T03:45:37.822Z,100706.35
2018-12-18T03:48:06.436Z,100706.17
2018-12-18T03:50:35.051Z,100716.58
2018-12-18T03:53:03.551Z,100707.30
2018-12-18T03:55:32.074Z,100712.06
2018-12-18T03:58:00.680Z,100717.27
2018-12-18T04:00:29.213Z,100720.33
2018-12-18T04:02:57.808Z,100714.67
2018-12-18T04:05:26.299Z,100718.58
2018-12-18T04:07:54.770Z,100712.96
2018-12-18T04:10:23.294Z,100710.37
2018-12-18T04:12:51.786Z,100705.11
2018-12-18T04:15:20.474Z,100705.50
2018-12-18T04:17:48.931Z,100702.90
2018-12-18T04:20:17.393Z,100699.94
2018-12-18T04:22:45.824Z,100700.75
2018-12-18T04:25:14.293Z,100701.55
2018-12-18T04:27:42.724Z,100703.25
2018-12-18T04:30:11.242Z,100690.63
2018-12-18T04:32:40.516Z,100686.62
2018-12-18T04:35:08.989Z,100687.47
2018-12-18T04:37:37.583Z,100680.13
2018-12-18T04:40:06.349Z,100676.98
2018-12-18T04:42:34.853Z,100678.17
2018-12-18T04:45:03.574Z,100666.71
2018-12-18T04:47:32.243Z,100659.39
2018-12-18T04:50:00.767Z,100656.20
2018-12-18T04:52:29.282Z,100661.95
2018-12-18T04:54:57.858Z,100661.05
2018-12-18T04:57:26.345Z,100665.69
2018-12-18T04:59:54.876Z,100656.93
2018-12-18T05:02:23.361Z,100659.59
2018-12-18T05:04:51.908Z,100668.19
2018-12-18T05:07:20.495Z,100665.08
2018-12-18T05:09:49.011Z,100666.34
2018-12-18T05:12:17.502Z,100658.53
2018-12-18T05:14:46.146Z,100657.23
2018-12-18T05:17:14.744Z,100661.94
2018-12-18T05:19:43.250Z,100665.29
2018-12-18T05:22:11.799Z,100662.58
2018-12-18T05:24:40.350Z,100662.12
2018-12-18T05:27:09.014Z,100666.44
2018-12-18T05:29:37.576Z,100666.33
2018-12-18T05:32:06.041Z,100664.67
2018-12-18T05:34:34.670Z,100601.86
2018-12-18T05:37:03.200Z,100662.88
2018-12-18T05:39:31.751Z,100661.91
2018-12-18T05:42:00.248Z,100667.00
2018-12-18T05:44:28.777Z,100667.95
2018-12-18T05:46:57.251Z,100679.95
2018-12-18T05:49:25.753Z,100673.05
2018-12-18T05:51:54.215Z,100673.50
2018-12-18T05:54:23.047Z,100675.59
2018-12-18T05:56:51.556Z,100681.25
2018-12-18T05:59:20.036Z,100679.09
2018-12-18T06:01:48.656Z,100683.01
2018-12-18T06:04:17.188Z,100677.74
2018-12-18T06:06:45.718Z,100682.14
2018-12-18T06:09:14.231Z,100683.84
2018-12-18T06:11:42.840Z,100678.27
2018-12-18T06:14:11.519Z,100673.39
2018-12-18T06:16:40.080Z,100684.19
2018-12-18T06:19:08.640Z,100672.09
2018-12-18T06:21:37.197Z,100682.48
2018-12-18T06:24:05.675Z,100676.10
2018-12-18T06:26:34.161Z,100669.94
2018-12-18T06:29:02.637Z,100677.34
2018-12-18T06:31:31.152Z,100671.24
2018-12-18T06:33:59.666Z,100662.88
2018-12-18T06:36:28.139Z,100667.63
2018-12-18T06:38:56.597Z,100690.22
2018-12-18T06:41:25.049Z,100564.61
2018-12-18T06:43:53.521Z,100667.34
2018-12-18T06:46:22.087Z,100606.72
2018-12-18T06:48:50.705Z,100667.45
2018-12-18T06:51:19.286Z,100668.14
2018-12-18T06:53:47.779Z,100663.44
2018-12-18T06:56:16.250Z,100670.79
2018-12-18T06:58:44.683Z,100672.95
2018-12-18T07:01:13.189Z,100678.08
2018-12-18T07:03:41.655Z,100670.84
2018-12-18T07:06:10.101Z,100669.44
2018-12-18T07:08:38.576Z,100675.20
2018-12-18T07:11:07.089Z,100681.70
2018-12-18T07:13:35.582Z,100676.05
2018-12-18T07:16:04.112Z,100677.45
2018-12-18T07:18:32.614Z,100683.84
2018-12-18T07:21:01.016Z,100673.44
2018-12-18T07:23:29.494Z,100669.59
2018-12-18T07:25:57.968Z,100673.06
2018-12-18T07:28:26.459Z,100666.20
2018-12-18T07:30:55.129Z,100669.59
2018-12-18T07:33:23.789Z,100655.80
2018-12-18T07:35:52.209Z,100643.66
2018-12-18T07:38:20.675Z,100636.30
2018-12-18T07:40:49.126Z,100643.27
2018-12-18T07:43:17.652Z,100634.16
2018-12-18T07:45:46.237Z,100645.40
2018-12-18T07:48:14.778Z,100632.80
2018-12-18T07:50:43.467Z,100627.31
2018-12-18T07:53:12.207Z,100617.86
2018-12-18T07:55:40.708Z,100619.23
2018-12-18T07:58:09.212Z,100618.16
2018-12-18T08:00:37.773Z,100614.36
2018-12-18T08:03:06.298Z,100616.72
2018-12-18T08:05:34.788Z,100612.52
2018-12-18T08:08:03.322Z,100604.45
2018-12-18T08:10:31.750Z,100606.30
2018-12-18T08:13:00.302Z,100609.05
2018-12-18T08:15:28.815Z,100617.48
2018-12-18T08:17:57.267Z,100618.94
2018-12-18T08:20:25.758Z,100617.01
2018-12-18T08:22:54.271Z,100621.18
2018-12-18T08:25:23.396Z,100614.61
2018-12-18T08:27:51.866Z,100615.95
2018-12-18T08:30:20.335Z,100610.63
2018-12-18T08:32:49.184Z,100621.98
2018-12-18T08:35:17.634Z,100615.48
2018-12-18T08:37:46.091Z,100616.58
2018-12-18T08:40:14.632Z,100611.06
2018-12-18T08:42:43.113Z,100622.53
2018-12-18T08:45:11.595Z,100612.38
2018-12-18T08:47:40.100Z,100607.79
2018-12-18T08:50:09.494Z,100607.36
2018-12-18T08:52:38.018Z,100604.02
2018-12-18T08:55:07.158Z,100598.99
2018-12-18T08:57:35.720Z,100586.23
2018-12-18T09:00:04.488Z,100582.54
2018-12-18T09:02:32.979Z,100587.55
2018-12-18T09:05:01.525Z,100592.02
2018-12-18T09:07:29.972Z,100585.02
2018-12-18T09:09:58.446Z,100591.17
2018-12-18T09:12:27.002Z,100568.92
2018-12-18T09:14:57.476Z,100574.16
2018-12-18T09:17:31.715Z,100564.20
2018-12-18T09:20:00.232Z,100557.98
2018-12-18T09:22:28.822Z,100567.94
2018-12-18T09:24:57.266Z,100560.03
2018-12-18T09:27:25.802Z,100558.38
2018-12-18T09:29:54.298Z,100550.08
2018-12-18T09:32:22.859Z,100550.25
2018-12-18T09:34:51.428Z,100549.65
2018-12-18T09:37:19.927Z,100543.48
2018-12-18T09:39:48.434Z,100547.77
2018-12-18T09:42:22.235Z,100547.98
2018-12-18T09:44:50.689Z,100548.82
2018-12-18T09:47:19.240Z,100557.02
2018-12-18T09:49:47.751Z,100560.84
2018-12-18T09:52:16.310Z,100557.39
2018-12-18T09:54:44.775Z,100547.73
2018-12-18T09:57:18.403Z,100543.20
2018-12-18T09:59:46.912Z,100548.04
2018-12-18T10:02:15.415Z,100546.40
2018-12-18T10:04:44.033Z,100552.66
2018-12-18T10:07:12.504Z,100543.72
2018-12-18T10:09:41.045Z,100534.79
2018-12-18T10:12:09.590Z,100533.48
2018-12-18T10:14:38.361Z,100535.37
2018-12-18T10:17:06.997Z,100538.95
2018-12-18T10:19:35.635Z,100531.02
2018-12-18T10:22:04.095Z,100511.37
2018-12-18T10:24:32.646Z,100502.03
2018-12-18T10:27:01.091Z,100507.98
2018-12-18T10:29:29.990Z,100515.00
2018-12-18T10:31:58.568Z,100518.05
2018-12-18T10:34:27.081Z,100510.66
2018-12-18T10:36:55.613Z,100499.89
2018-12-18T10:39:24.103Z,100490.80
2018-12-18T10:41:52.673Z,100200.54
2018-12-18T10:44:21.287Z,100461.73
2018-12-18T10:46:49.874Z,100476.77
2018-12-18T10:49:18.383Z,100467.32
2018-12-18T10:51:46.858Z,100460.01
2018-12-18T10:54:15.390Z,100449.67
2018-12-18T10:56:43.895Z,100447.75
2018-12-18T10:59:12.349Z,100441.77
2018-12-18T11:01:46.110Z,100429.19
2018-12-18T11:04:14.565Z,100426.44
2018-12-18T11:06:43.082Z,100405.81
2018-12-18T11:09:11.555Z,100408.02
2018-12-18T11:11:40.039Z,100406.02
2018-12-18T11:14:08.539Z,100399.34
2018-12-18T11:16:37.525Z,100401.02
2018-12-18T11:19:06.451Z,100397.70
2018-12-18T11:21:34.995Z,100399.54
2018-12-18T11:24:03.569Z,100397.27
2018-12-18T11:26:32.062Z,100393.44
2018-12-18T11:29:00.567Z,100382.16
2018-12-18T11:31:29.070Z,100375.69
2018-12-18T11:33:57.544Z,100358.97
2018-12-18T11:36:26.049Z,100351.00
2018-12-18T11:38:54.548Z,100356.05
2018-12-18T11:41:23.257Z,100351.76
2018-12-18T11:43:51.718Z,100343.67
2018-12-18T11:46:20.194Z,100345.06
2018-12-18T11:48:48.713Z,100343.51
2018-12-18T11:51:17.278Z,100336.35
2018-12-18T11:53:45.754Z,100326.09
2018-12-18T11:56:14.182Z,100329.63
2018-12-18T11:58:42.717Z,100321.01
2018-12-18T12:01:11.281Z,100325.80
2018-12-18T12:03:39.780Z,100336.20
2018-12-18T12:06:08.221Z,100322.48
2018-12-18T12:08:36.671Z,100314.86
2018-12-18T12:11:05.159Z,100289.00
2018-12-18T12:13:33.616Z,100303.61
2018-12-18T12:16:02.196Z,100298.05
2018-12-18T12:21:26.519Z,100305.90
2018-12-18T12:23:55.198Z,100298.98
2018-12-18T12:26:29.059Z,100285.95
2018-12-18T12:28:57.598Z,100306.72
2018-12-18T12:31:26.216Z,100304.39
2018-12-18T12:33:54.741Z,100310.24
2018-12-18T12:36:29.415Z,100300.32
2018-12-18T12:38:53.894Z,100290.63
2018-12-18T12:41:22.481Z,100307.34
2018-12-18T12:43:50.989Z,100285.30
2018-12-18T12:46:19.541Z,100283.00
2018-12-18T12:48:54.961Z,100286.38
2018-12-18T12:51:24.135Z,100286.86
2018-12-18T12:53:53.428Z,100295.54
2018-12-18T12:56:22.351Z,100270.78
2018-12-18T12:58:50.818Z,100276.05
2018-12-18T13:01:19.679Z,100276.62
2018-12-18T13:03:48.317Z,100277.73
2018-12-18T13:06:17.179Z,100277.24
2018-12-18T13:08:46.245Z,100279.08
2018-12-18T13:11:14.928Z,100277.33
2018-12-18T13:13:43.935Z,100277.77
2018-12-18T13:16:12.486Z,100274.48
2018-12-18T13:18:41.043Z,100270.42
2018-12-18T13:21:09.570Z,100254.03
2018-12-18T13:23:38.103Z,100265.14
2018-12-18T13:26:06.682Z,100192.92
2018-12-18T13:28:35.323Z,100239.19
2018-12-18T13:31:04.011Z,100237.55
2018-12-18T13:33:33.788Z,100239.87
2018-12-18T13:36:02.480Z,100224.66
2018-12-18T13:38:31.044Z,100213.31
2018-12-18T13:40:59.571Z,100217.72
2018-12-18T13:43:28.159Z,100219.97
2018-12-18T13:45:59.344Z,100232.66
2018-12-18T13:48:28.004Z,100220.47
2018-12-18T13:50:57.110Z,100212.20
2018-12-18T13:53:25.636Z,100248.92
2018-12-18T13:55:54.703Z,100216.66
2018-12-18T13:58:23.416Z,100214.94
2018-12-18T14:00:51.965Z,100210.18
2018-12-18T14:03:20.677Z,100225.02
2018-12-18T14:05:49.190Z,100214.57
2018-12-18T14:08:17.942Z,100201.48
2018-12-18T14:10:46.605Z,100204.98
2018-12-18T14:13:15.555Z,100197.98
2018-12-18T14:15:44.334Z,100186.59
2018-12-18T14:18:12.910Z,100180.05
2018-12-18T14:20:41.516Z,100183.07
2018-12-18T14:23:11.305Z,100198.25
2018-12-18T14:25:39.899Z,100188.63
2018-12-18T14:28:08.404Z,100184.69
2018-12-18T14:30:37.079Z,100176.76
2018-12-18T14:33:05.636Z,100205.89
2018-12-18T14:35:34.170Z,100176.66
2018-12-18T14:38:02.919Z,100195.73
2018-12-18T14:40:31.607Z,100194.45
2018-12-18T14:43:00.386Z,100175.71
2018-12-18T14:45:28.891Z,100177.38
2018-12-18T14:47:58.141Z,100196.44
2018-12-18T14:50:26.696Z,100177.34
2018-12-18T14:52:55.280Z,100172.48
2018-12-18T14:55:23.793Z,100174.12
2018-12-18T14:57:52.372Z,100173.67
2018-12-18T15:00:21.021Z,100161.89
2018-12-18T15:02:49.692Z,100172.30
2018-12-18T15:05:18.287Z,100160.06
2018-12-18T15:07:46.783Z,100157.05
2018-12-18T15:10:15.562Z,100150.84
2018-12-18T15:12:50.723Z,100159.58
2018-12-18T15:15:19.340Z,100149.11
2018-12-18T15:17:47.859Z,100154.24
2018-12-18T15:20:16.448Z,100137.78
2018-12-18T15:22:45.022Z,100127.32
2018-12-18T15:25:13.557Z,100119.06
2018-12-18T15:27:42.086Z,100122.08
2018-12-18T15:30:11.055Z,100119.00
2018-12-18T15:32:39.821Z,100132.05
2018-12-18T15:35:08.389Z,100125.05
2018-12-18T15:37:37.212Z,100116.23
2018-12-18T15:40:05.946Z,100135.39
2018-12-18T15:42:34.438Z,100129.76
2018-12-18T15:45:02.966Z,100119.33
2018-12-18T15:47:31.485Z,100120.17
2018-12-18T15:49:59.996Z,100134.48
2018-12-18T15:52:28.667Z,100128.34
2018-12-18T15:54:57.201Z,100132.60
2018-12-18T15:57:25.682Z,100119.22
2018-12-18T15:59:54.181Z,100117.41
2018-12-18T16:02:24.346Z,100124.39
2018-12-18T16:04:53.031Z,100119.22
2018-12-18T16:07:21.482Z,100118.28
2018-12-18T16:09:50.034Z,100120.88
2018-12-18T16:12:18.566Z,100126.09
2018-12-18T16:14:47.186Z,100121.28
2018-12-18T16:17:15.753Z,100120.84
2018-12-18T16:19:44.375Z,100117.34
2018-12-18T16:22:12.849Z,100109.07
2018-12-18T16:24:41.472Z,100111.66
2018-12-18T16:27:10.031Z,100129.41
2018-12-18T16:29:39.269Z,100082.06
2018-12-18T16:32:07.895Z,100058.22
2018-12-18T16:34:36.401Z,100060.81
2018-12-18T16:37:05.246Z,100059.05
2018-12-18T16:39:33.837Z,100028.14
2018-12-18T16:42:02.415Z,100027.28
2018-12-18T16:44:30.994Z,100061.50
2018-12-18T16:46:59.526Z,100051.63
2018-12-18T16:49:28.013Z,100029.86
2018-12-18T16:51:56.539Z,100045.50
2018-12-18T16:54:25.339Z,100037.23
2018-12-18T16:56:54.055Z,100026.80
2018-12-18T16:59:22.533Z,100031.98
2018-12-18T17:01:51.167Z,100022.91
2018-12-18T17:04:19.744Z,100031.08
2018-12-18T17:06:48.373Z,100014.62
2018-12-18T17:09:16.963Z,100026.66
2018-12-18T17:11:45.527Z,100018.50
2018-12-18T17:14:14.290Z,100004.20
2018-12-18T17:16:42.939Z,100012.45
2018-12-18T17:19:11.457Z,99997.23
2018-12-18T17:21:40.062Z,100015.44
2018-12-18T17:24:08.731Z,100002.84
2018-12-18T17:26:37.468Z,100001.53
2018-12-18T17:29:06.951Z,100006.73
2018-12-18T17:31:35.661Z,100000.65
2018-12-18T17:34:04.201Z,99998.05
2018-12-18T17:36:32.752Z,99995.95
2018-12-18T17:39:01.246Z,99999.00
2018-12-18T17:41:29.757Z,100005.92
2018-12-18T17:43:58.377Z,99990.30
2018-12-18T17:46:27.316Z,99981.63
2018-12-18T17:49:06.292Z,99982.86
2018-12-18T17:51:37.931Z,99999.48
2018-12-18T17:59:34.766Z,99950.83
2018-12-18T18:02:03.422Z,99964.28
2018-12-18T18:04:32.023Z,99954.38
2018-12-18T18:07:00.543Z,99949.15
2018-12-18T18:09:28.965Z,99932.22
2018-12-18T18:11:57.796Z,99941.73
2018-12-18T18:14:26.434Z,99927.73
2018-12-18T18:16:55.292Z,99930.36
2018-12-18T18:19:36.521Z,99914.36
2018-12-18T18:22:22.402Z,99930.42
2018-12-18T18:27:58.515Z,99899.13
2018-12-18T18:45:35.116Z,99891.25
2018-12-18T18:54:23.147Z,99851.77
2018-12-18T19:03:16.952Z,99826.60
2018-12-18T19:17:59.197Z,99822.73
2018-12-18T19:32:47.872Z,99819.30
2018-12-18T23:54:52.932Z,99482.59
